Time;durP1;ratioP1;P1;durP2;ratioP2;P2;SDS_P1;SDS_P2;PMS_P1;PMS_P2;Temp;Humidity;BMP_temperature;BMP_pressure;BME280_temperature;BME280_humidity;BME280_pressure;Samples;Min_cycle;Max_cycle;Signal;HPM_P1;HPM_P2
2022/09/09 00:01:40;;;;;;;9.90;8.35;;;;;;;15.04;100.00;100142.80;1643754;87;21111;-80
2022/09/09 00:04:28;;;;;;;9.60;8.20;;;;;;;15.06;100.00;100146.20;1646903;87;21486;-80
2022/09/09 00:07:26;;;;;;;10.72;7.92;;;;;;;15.12;100.00;100146.30;1647389;87;21065;-80
2022/09/09 00:10:01;;;;;;;9.55;6.78;;;;;;;15.11;100.00;100149.42;1644467;87;21191;-80
2022/09/09 00:13:03;;;;;;;7.78;6.58;;;;;;;15.02;100.00;100146.46;1647107;85;21131;-83
2022/09/09 00:15:45;;;;;;;6.92;6.25;;;;;;;14.94;100.00;100142.51;1644658;86;21069;-84
2022/09/09 00:18:29;;;;;;;7.08;6.37;;;;;;;14.99;100.00;100144.01;1621066;87;21015;-80
2022/09/09 00:21:02;;;;;;;8.88;6.33;;;;;;;15.01;100.00;100147.41;1619209;87;21104;-80
2022/09/09 00:23:36;;;;;;;8.48;5.75;;;;;;;15.01;100.00;100152.22;1640682;87;21527;-83
2022/09/09 00:26:40;;;;;;;6.30;5.33;;;;;;;15.02;100.00;100152.62;1646568;86;21561;-80
2022/09/09 00:29:45;;;;;;;6.45;5.75;;;;;;;15.04;100.00;100154.67;1640404;87;21019;-80
2022/09/09 00:32:18;;;;;;;9.30;5.67;;;;;;;15.04;100.00;100152.03;1646075;87;21037;-85
2022/09/09 00:35:00;;;;;;;7.17;5.58;;;;;;;15.03;100.00;100152.14;1639117;87;21076;-81
2022/09/09 00:37:31;;;;;;;5.92;4.95;;;;;;;14.96;100.00;100154.27;1646424;87;22730;-81
2022/09/09 00:40:03;;;;;;;5.42;4.92;;;;;;;14.95;100.00;100153.91;1646498;87;21065;-81
2022/09/09 00:42:42;;;;;;;5.08;4.58;;;;;;;14.98;100.00;100154.20;1645189;86;21053;-83
2022/09/09 00:45:36;;;;;;;5.10;4.58;;;;;;;14.93;100.00;100153.14;1647766;87;21069;-85
2022/09/09 00:48:11;;;;;;;4.53;3.90;;;;;;;14.85;100.00;100156.22;1628283;87;21050;-81
2022/09/09 00:51:02;;;;;;;5.70;4.55;;;;;;;14.81;100.00;100155.20;1640567;87;21568;-83
2022/09/09 00:54:18;;;;;;;6.22;4.65;;;;;;;14.81;100.00;100160.00;1629265;87;21169;-83
2022/09/09 00:57:10;;;;;;;6.65;5.20;;;;;;;14.83;100.00;100165.20;1615331;87;21106;-81
2022/09/09 00:59:51;;;;;;;5.42;4.60;;;;;;;14.84;100.00;100161.13;1630956;87;22411;-85
2022/09/09 01:02:41;;;;;;;5.17;4.70;;;;;;;14.84;100.00;100165.56;1631988;87;21096;-86
2022/09/09 01:05:14;;;;;;;;;;;;;;;14.86;100.00;100168.97;1632156;86;21343;-81
2022/09/09 01:07:46;;;;;;;5.65;4.85;;;;;;;14.84;100.00;100173.00;1622673;87;20435;-81
2022/09/09 01:10:36;;;;;;;6.12;5.20;;;;;;;14.82;100.00;100168.75;1633133;87;21112;-84
2022/09/09 01:13:07;;;;;;;5.83;5.22;;;;;;;14.81;100.00;100165.75;1611617;87;21177;-83
2022/09/09 01:15:35;;;;;;;5.60;4.83;;;;;;;14.79;100.00;100165.82;1624180;87;21188;-81
2022/09/09 01:18:10;;;;;;;5.33;4.83;;;;;;;14.73;100.00;100174.95;1628124;86;21942;-81
2022/09/09 01:20:57;;;;;;;5.37;4.80;;;;;;;14.63;100.00;100175.56;1607954;88;21102;-81
2022/09/09 01:23:42;;;;;;;5.20;3.98;;;;;;;14.52;100.00;100180.13;1618405;87;21135;-81
2022/09/09 01:26:44;;;;;;;6.10;4.20;;;;;;;14.50;100.00;100184.16;1608158;88;21058;-81
2022/09/09 01:29:18;;;;;;;4.40;3.95;;;;;;;14.39;100.00;100182.59;1598184;88;21053;-81
2022/09/09 01:32:01;;;;;;;4.33;3.98;;;;;;;14.29;100.00;100184.03;1562865;89;21241;-81
2022/09/09 01:34:35;;;;;;;4.42;3.67;;;;;;;14.19;100.00;100191.62;1565250;89;21705;-81
2022/09/09 01:37:11;;;;;;;9.13;5.05;;;;;;;14.11;100.00;100193.83;1568317;89;21165;-81
2022/09/09 01:39:43;;;;;;;5.85;5.22;;;;;;;14.11;100.00;100192.51;1537717;91;21042;-81
2022/09/09 01:42:16;;;;;;;9.75;6.30;;;;;;;14.14;100.00;100188.38;1559910;90;21049;-84
2022/09/09 01:44:43;;;;;;;7.00;6.17;;;;;;;14.17;100.00;100188.20;1555883;91;21833;-81
2022/09/09 01:47:10;;;;;;;6.58;5.40;;;;;;;14.20;100.00;100191.15;1559191;90;21087;-81
2022/09/09 01:49:39;;;;;;;5.22;4.72;;;;;;;14.17;100.00;100186.89;1548313;91;21154;-84
2022/09/09 01:52:08;;;;;;;6.30;4.90;;;;;;;14.09;100.00;100190.89;1540267;91;21156;-86
2022/09/09 01:54:38;;;;;;;8.63;6.45;;;;;;;14.04;100.00;100189.34;1555042;91;21095;-81
2022/09/09 01:57:19;;;;;;;;;;;;;;;14.00;100.00;100198.36;1598257;88;21388;-86
2022/09/09 02:00:09;;;;;;;7.40;6.33;;;;;;;13.95;100.00;100196.44;1595070;87;20405;-81
2022/09/09 02:03:24;;;;;;;8.03;6.80;;;;;;;13.92;100.00;100193.97;1591897;88;22839;-81
2022/09/09 02:06:25;;;;;;;7.90;6.87;;;;;;;13.88;100.00;100200.33;1560891;90;21111;-81
2022/09/09 02:08:57;;;;;;;9.65;6.92;;;;;;;13.84;100.00;100200.97;1521869;93;21104;-81
2022/09/09 02:11:28;;;;;;;7.22;6.53;;;;;;;13.81;100.00;100204.24;1559236;91;21126;-81
2022/09/09 02:14:14;;;;;;;8.98;6.65;;;;;;;13.79;100.00;100205.63;1529716;91;21089;-81
2022/09/09 02:16:59;;;;;;;6.53;5.75;;;;;;;13.71;100.00;100203.86;1547800;88;21165;-81
2022/09/09 02:19:34;;;;;;;9.73;6.42;;;;;;;13.66;100.00;100204.56;1588933;88;21036;-81
2022/09/09 02:22:04;;;;;;;8.10;6.78;;;;;;;13.59;100.00;100206.69;1637770;85;21051;-81
2022/09/09 02:24:35;;;;;;;9.95;7.65;;;;;;;13.55;100.00;100205.16;1636967;86;21583;-81
2022/09/09 02:27:08;;;;;;;14.95;7.30;;;;;;;13.53;100.00;100208.33;1637738;86;21045;-81
2022/09/09 02:29:44;;;;;;;13.70;7.40;;;;;;;13.52;100.00;100213.66;1629895;86;21003;-81
2022/09/09 02:32:16;;;;;;;14.68;6.62;;;;;;;13.48;100.00;100213.45;1636757;86;21031;-81
2022/09/09 02:34:57;;;;;;;13.53;7.05;;;;;;;13.48;100.00;100212.98;1604369;86;21125;-82
2022/09/09 02:37:30;;;;;;;11.28;6.60;;;;;;;13.42;100.00;100212.46;1634356;86;21139;-89
2022/09/09 02:39:57;;;;;;;11.22;6.15;;;;;;;13.39;100.00;100216.10;1631878;86;21582;-82
2022/09/09 02:42:24;;;;;;;7.22;6.47;;;;;;;13.35;100.00;100222.44;1636817;86;21070;-87
2022/09/09 02:44:52;;;;;;;18.85;7.00;;;;;;;13.29;100.00;100220.97;1636782;86;22008;-81
2022/09/09 02:47:33;;;;;;;13.80;6.28;;;;;;;13.28;100.00;100219.75;1636405;86;21060;-81
2022/09/09 02:50:20;;;;;;;12.63;6.05;;;;;;;13.30;100.00;100219.19;1641094;85;21293;-85
2022/09/09 02:52:59;;;;;;;6.80;6.10;;;;;;;13.31;100.00;100218.27;1634695;86;21099;-81
2022/09/09 02:56:00;;;;;;;6.83;6.10;;;;;;;13.29;100.00;100213.08;1626544;86;20999;-81
2022/09/09 02:58:28;;;;;;;7.47;6.25;;;;;;;13.27;100.00;100219.34;1635199;86;21031;-89
2022/09/09 03:01:02;;;;;;;6.60;5.97;;;;;;;13.22;100.00;100223.95;1634770;86;21488;-81
2022/09/09 03:03:30;;;;;;;10.82;8.00;;;;;;;13.18;100.00;100227.22;1637569;86;21956;-81
2022/09/09 03:05:58;;;;;;;17.98;7.72;;;;;;;13.20;100.00;100236.36;1607077;86;21010;-90
2022/09/09 03:08:27;;;;;;;17.17;8.08;;;;;;;13.20;100.00;100227.16;1638036;86;21057;-81
2022/09/09 03:10:55;;;;;;;25.32;8.25;;;;;;;13.18;100.00;100229.38;1637140;86;21065;-81
2022/09/09 03:13:25;;;;;;;10.18;6.95;;;;;;;13.22;100.00;100233.17;1637277;86;21085;-87
2022/09/09 03:15:52;;;;;;;20.97;6.47;;;;;;;13.17;100.00;100232.95;1637258;86;21130;-82
2022/09/09 03:18:20;;;;;;;10.88;6.80;;;;;;;13.20;100.00;100233.27;1634254;86;21074;-82
2022/09/09 03:20:50;;;;;;;15.23;6.42;;;;;;;13.14;100.00;100230.48;1632384;86;21029;-82
2022/09/09 03:23:18;;;;;;;14.93;6.50;;;;;;;13.12;100.00;100229.69;1634367;86;21082;-81
2022/09/09 03:25:51;;;;;;;10.72;7.08;;;;;;;13.12;100.00;100224.91;1637674;86;21669;-81
2022/09/09 03:28:20;;;;;;;13.72;7.55;;;;;;;13.10;100.00;100226.28;1620373;86;21137;-81
2022/09/09 03:30:48;;;;;;;7.28;6.58;;;;;;;13.10;100.00;100231.55;1632104;86;21065;-81
2022/09/09 03:33:17;;;;;;;7.67;6.95;;;;;;;13.09;100.00;100231.64;1632005;86;21149;-81
2022/09/09 03:35:50;;;;;;;7.33;6.62;;;;;;;13.06;100.00;100229.16;1632168;86;21014;-81
2022/09/09 03:38:19;;;;;;;7.28;6.10;;;;;;;13.03;100.00;100226.69;1637625;86;21163;-81
2022/09/09 03:40:54;;;;;;;7.28;6.60;;;;;;;12.95;100.00;100231.86;1636784;86;21126;-81
2022/09/09 03:43:21;;;;;;;9.23;6.50;;;;;;;12.94;100.00;100236.73;1632433;86;21071;-81
2022/09/09 03:45:48;;;;;;;8.15;6.33;;;;;;;12.90;100.00;100236.48;1634070;86;21061;-81
2022/09/09 03:48:17;;;;;;;6.33;5.72;;;;;;;12.87;100.00;100234.48;1636837;86;21015;-89
2022/09/09 03:50:49;;;;;;;7.37;6.40;;;;;;;12.84;100.00;100235.95;1626580;86;21049;-81
2022/09/09 03:53:19;;;;;;;6.40;5.80;;;;;;;12.77;100.00;100235.38;1625017;86;21143;-82
2022/09/09 03:55:49;;;;;;;6.72;5.62;;;;;;;12.71;100.00;100244.41;1637047;86;21026;-87
2022/09/09 03:58:18;;;;;;;8.80;5.75;;;;;;;12.67;100.00;100252.08;1635414;86;21057;-91
2022/09/09 04:01:02;;;;;;;9.00;6.37;;;;;;;12.66;100.00;100252.14;1631938;87;21041;-89
2022/09/09 04:03:31;;;;;;;13.53;6.45;;;;;;;12.67;100.00;100257.81;1633637;87;21536;-90
2022/09/09 04:06:01;;;;;;;12.60;5.75;;;;;;;12.75;100.00;100261.36;1627851;86;21117;-91
2022/09/09 04:08:33;;;;;;;5.45;4.95;;;;;;;12.68;100.00;100256.88;1632986;86;21504;-88
2022/09/09 04:11:04;;;;;;;6.08;5.00;;;;;;;12.61;100.00;100262.02;1626775;86;21508;-81
2022/09/09 04:13:35;;;;;;;4.83;4.15;;;;;;;12.56;100.00;100259.62;1623147;87;21107;-92
2022/09/09 04:16:03;;;;;;;;;;;;;;;12.53;100.00;100259.78;1638067;86;21097;-92
2022/09/09 04:18:31;;;;;;;5.45;4.58;;;;;;;12.46;100.00;100263.14;1638061;86;21145;-86
2022/09/09 04:20:59;;;;;;;7.50;4.55;;;;;;;12.42;100.00;100264.69;1634307;86;21062;-85
2022/09/09 04:23:29;;;;;;;7.92;4.92;;;;;;;12.41;100.00;100262.97;1629432;87;21118;-89
2022/09/09 04:25:59;;;;;;;9.68;5.80;;;;;;;12.42;100.00;100261.59;1635241;87;21488;-81
2022/09/09 04:28:29;;;;;;;32.45;6.85;;;;;;;12.40;100.00;100263.44;1622751;87;21269;-92
2022/09/09 04:30:57;;;;;;;48.90;7.37;;;;;;;12.42;100.00;100266.85;1630140;87;21128;-81
2022/09/09 04:33:28;;;;;;;27.17;6.75;;;;;;;12.48;100.00;100265.71;1618646;87;21539;-90
2022/09/09 04:35:55;;;;;;;33.50;6.67;;;;;;;12.51;100.00;100265.56;1633646;86;21053;-92
2022/09/09 04:38:23;;;;;;;38.65;5.85;;;;;;;12.54;100.00;100272.45;1637948;86;21692;-86
2022/09/09 04:40:53;;;;;;;23.57;5.08;;;;;;;12.54;100.00;100271.98;1627294;86;21094;-91
2022/09/09 04:43:22;;;;;;;32.60;4.00;;;;;;;12.54;100.00;100269.36;1630038;86;21969;-87
2022/09/09 04:45:55;;;;;;;14.15;4.03;;;;;;;12.53;100.00;100270.30;1633233;86;21055;-91
2022/09/09 04:48:21;;;;;;;16.45;5.35;;;;;;;12.53;100.00;100270.30;1635305;86;21338;-84
2022/09/09 04:51:09;;;;;;;10.53;6.12;;;;;;;12.53;100.00;100276.02;1628100;86;21048;-83
2022/09/09 04:53:37;;;;;;;28.07;4.90;;;;;;;12.57;100.00;100281.05;1637540;86;21065;-90
2022/09/09 04:56:12;;;;;;;31.77;4.30;;;;;;;12.61;100.00;100279.98;1636175;86;21140;-82
2022/09/09 04:58:47;;;;;;;7.17;4.40;;;;;;;12.56;100.00;100278.50;1635722;86;21069;-86
2022/09/09 05:01:17;;;;;;;;;;;;;;;12.50;100.00;100276.55;1635879;86;21010;-82
2022/09/09 05:03:46;;;;;;;10.08;4.40;;;;;;;12.46;100.00;100284.17;1617849;86;20210;-82
2022/09/09 05:06:19;;;;;;;12.93;5.65;;;;;;;12.40;100.00;100280.98;1624543;86;21020;-82
2022/09/09 05:08:49;;;;;;;7.55;5.65;;;;;;;12.36;100.00;100278.97;1627691;86;21148;-85
2022/09/09 05:11:27;;;;;;;5.92;5.33;;;;;;;12.35;100.00;100282.97;1635251;86;22373;-94
2022/09/09 05:13:56;;;;;;;6.22;5.62;;;;;;;12.33;100.00;100283.49;1634190;86;21638;-83
2022/09/09 05:16:24;;;;;;;6.03;5.30;;;;;;;12.32;100.00;100287.06;1634424;86;21078;-85
2022/09/09 05:18:52;;;;;;;6.62;5.83;;;;;;;12.33;100.00;100284.34;1635018;86;21100;-90
2022/09/09 05:21:23;;;;;;;9.13;6.45;;;;;;;12.39;100.00;100285.40;1616094;87;21155;-86
2022/09/09 05:23:51;;;;;;;8.75;6.35;;;;;;;12.50;100.00;100292.32;1634370;86;21510;-90
2022/09/09 05:26:21;;;;;;;9.50;7.15;;;;;;;12.62;100.00;100297.92;1633940;86;21539;-84
2022/09/09 05:28:49;;;;;;;;;;;;;;;12.70;100.00;100290.53;1637527;87;21466;-84
2022/09/09 05:31:21;;;;;;;7.65;6.62;;;;;;;12.78;100.00;100299.38;1634827;87;21649;-84
2022/09/09 05:33:49;;;;;;;7.53;6.55;;;;;;;12.83;100.00;100296.03;1645550;86;21999;-93
2022/09/09 05:36:20;;;;;;;7.00;6.35;;;;;;;12.86;100.00;100299.39;1633825;87;21081;-88
2022/09/09 05:38:49;;;;;;;6.72;6.08;;;;;;;12.93;100.00;100292.05;1633466;86;21085;-82
2022/09/09 05:41:17;;;;;;;7.37;6.45;;;;;;;12.99;100.00;100302.73;1634978;86;21054;-82
2022/09/09 05:43:46;;;;;;;7.03;6.35;;;;;;;13.02;100.00;100298.63;1635593;86;21153;-84
2022/09/09 05:46:17;;;;;;;8.70;6.87;;;;;;;13.08;100.00;100299.64;1634165;86;21128;-85
2022/09/09 05:48:47;;;;;;;8.88;7.97;;;;;;;13.17;100.00;100299.21;1635000;86;21092;-83
2022/09/09 05:51:17;;;;;;;13.62;7.62;;;;;;;13.25;100.00;100297.05;1634547;86;21073;-86
2022/09/09 05:53:45;;;;;;;;;;;;;;;13.30;100.00;100296.84;1636900;86;21081;-86
2022/09/09 05:56:17;;;;;;;7.62;6.90;;;;;;;13.38;100.00;100295.99;1634091;86;20469;-91
2022/09/09 05:58:52;;;;;;;8.43;7.53;;;;;;;13.48;100.00;100290.66;1632037;86;21407;-85
2022/09/09 06:01:29;;;;;;;8.48;7.67;;;;;;;13.54;100.00;100290.81;1631868;86;21293;-90
2022/09/09 06:03:59;;;;;;;8.68;7.80;;;;;;;13.61;100.00;100301.43;1633322;86;21089;-81
2022/09/09 06:06:36;;;;;;;8.98;7.70;;;;;;;13.68;100.00;100297.53;1635255;86;21065;-88
2022/09/09 06:09:06;;;;;;;8.98;8.08;;;;;;;13.75;100.00;100298.93;1632136;86;21070;-79
2022/09/09 06:11:35;;;;;;;9.25;7.78;;;;;;;13.80;100.00;100295.59;1632836;86;22585;-89
2022/09/09 06:14:04;;;;;;;7.72;7.03;;;;;;;13.83;100.00;100295.44;1635039;86;21084;-83
2022/09/09 06:16:33;;;;;;;8.10;6.55;;;;;;;13.88;100.00;100295.17;1632127;86;21089;-89
2022/09/09 06:19:02;;;;;;;7.67;6.87;;;;;;;13.91;100.00;100302.95;1632407;86;21073;-81
2022/09/09 06:21:34;;;;;;;8.10;7.30;;;;;;;13.93;100.00;100297.11;1633362;86;21125;-85
2022/09/09 06:24:03;;;;;;;9.13;7.62;;;;;;;13.98;100.00;100295.55;1631808;86;21073;-82
2022/09/09 06:26:33;;;;;;;8.03;7.22;;;;;;;14.05;100.00;100298.27;1633579;86;21027;-90
2022/09/09 06:29:04;;;;;;;7.92;7.22;;;;;;;14.11;100.00;100301.89;1633694;86;21090;-82
2022/09/09 06:31:33;;;;;;;;;;;;;;;14.20;100.00;100296.59;1634872;86;21093;-88
2022/09/09 06:34:06;;;;;;;8.68;7.47;;;;;;;14.24;100.00;100297.67;1632998;86;20653;-92
2022/09/09 06:36:38;;;;;;;9.40;7.70;;;;;;;14.29;100.00;100290.34;1634901;86;22264;-92
2022/09/09 06:39:06;;;;;;;9.00;7.50;;;;;;;14.37;100.00;100289.08;1632663;86;21430;-82
2022/09/09 06:41:36;;;;;;;8.18;7.15;;;;;;;14.43;100.00;100294.02;1636209;86;21058;-79
2022/09/09 06:44:04;;;;;;;8.28;6.85;;;;;;;14.48;100.00;100294.62;1634032;86;21073;-88
2022/09/09 06:46:35;;;;;;;8.53;6.45;;;;;;;14.50;100.00;100296.23;1633357;86;21057;-83
2022/09/09 06:49:03;;;;;;;6.90;6.20;;;;;;;14.55;100.00;100296.47;1602587;86;21241;-94
2022/09/09 06:51:42;;;;;;;8.20;7.40;;;;;;;14.58;100.00;100295.86;1634492;86;21065;-87
2022/09/09 06:54:06;;;;;;;9.25;7.53;;;;;;;14.65;100.00;100297.20;1633565;86;21498;-88
2022/09/09 06:56:37;;;;;;;9.20;7.45;;;;;;;14.73;100.00;100303.38;1639868;86;21116;-84
2022/09/09 06:59:08;;;;;;;7.53;6.67;;;;;;;14.79;100.00;100295.11;1635177;87;21519;-79
2022/09/09 07:01:41;;;;;;;6.83;6.22;;;;;;;14.85;100.00;100292.12;1634490;86;21143;-86
2022/09/09 07:04:11;;;;;;;7.65;6.60;;;;;;;14.93;100.00;100295.65;1605464;87;21182;-81
2022/09/09 07:06:43;;;;;;;9.83;7.87;;;;;;;14.99;100.00;100290.02;1611104;85;21414;-92
2022/09/09 07:09:15;;;;;;;6.17;5.58;;;;;;;15.10;100.00;100292.04;1633485;86;21069;-88
2022/09/09 07:11:48;;;;;;;6.25;4.70;;;;;;;15.19;100.00;100291.53;1634757;87;21081;-89
2022/09/09 07:14:16;;;;;;;5.15;4.75;;;;;;;15.31;100.00;100293.92;1634055;86;21345;-90
2022/09/09 07:16:48;;;;;;;5.65;4.75;;;;;;;15.31;100.00;100293.92;1634618;87;21527;-88
2022/09/09 07:19:17;;;;;;;7.60;3.90;;;;;;;15.49;100.00;100298.58;1613562;87;21076;-89
2022/09/09 07:21:45;;;;;;;4.78;4.37;;;;;;;15.55;100.00;100300.41;1633832;87;21098;-90
2022/09/09 07:24:14;;;;;;;4.78;3.98;;;;;;;15.55;100.00;100300.41;1602667;87;21703;-88
2022/09/09 07:26:42;;;;;;;5.42;3.85;;;;;;;15.63;100.00;100297.31;1632588;87;21111;-87
2022/09/09 07:29:13;;;;;;;3.70;3.30;;;;;;;15.71;100.00;100302.16;1633093;87;21089;-89
2022/09/09 07:31:40;;;;;;;4.80;3.30;;;;;;;15.78;100.00;100300.85;1633401;86;21542;-90
2022/09/09 07:34:09;;;;;;;6.05;2.77;;;;;;;15.86;100.00;100307.00;1606624;87;21684;-80
2022/09/09 07:36:39;;;;;;;5.25;2.83;;;;;;;15.89;100.00;100308.14;1604432;87;21121;-84
2022/09/09 07:39:17;;;;;;;5.95;2.52;;;;;;;15.93;100.00;100313.12;1633835;86;21069;-88
2022/09/09 07:41:49;;;;;;;3.80;2.25;;;;;;;15.96;100.00;100310.77;1631965;86;21105;-84
2022/09/09 07:44:22;;;;;;;2.65;2.35;;;;;;;16.00;100.00;100309.66;1632356;86;21125;-81
2022/09/09 07:46:51;;;;;;;3.67;2.52;;;;;;;16.04;100.00;100304.55;1633338;86;21069;-84
2022/09/09 07:49:21;;;;;;;5.72;2.90;;;;;;;16.06;100.00;100303.98;1635045;86;21053;-79
2022/09/09 07:51:49;;;;;;;2.58;2.37;;;;;;;16.16;100.00;100304.28;1633891;86;22133;-80
2022/09/09 07:54:20;;;;;;;4.33;2.58;;;;;;;16.16;100.00;100304.28;1633858;86;21078;-83
2022/09/09 07:56:58;;;;;;;3.27;2.42;;;;;;;16.23;100.00;100320.13;1633846;86;21045;-79
2022/09/09 07:59:31;;;;;;;3.65;2.20;;;;;;;16.30;100.00;100320.14;1617804;87;21129;-78
2022/09/09 08:02:06;;;;;;;4.00;2.30;;;;;;;16.38;100.00;100328.45;1639402;86;21090;-91
2022/09/09 08:04:38;;;;;;;3.67;2.60;;;;;;;16.43;100.00;100325.05;1632999;86;21081;-95
2022/09/09 08:08:00;;;;;;;4.33;2.58;;;;;;;16.51;100.00;100325.39;1635682;87;21046;-76
2022/09/09 08:10:50;;;;;;;5.55;2.80;;;;;;;16.60;100.00;100325.76;1524007;92;21076;-92
2022/09/09 08:13:18;;;;;;;4.55;2.40;;;;;;;16.71;100.00;100326.80;1523811;92;21140;-93
2022/09/09 08:15:46;;;;;;;4.10;2.40;;;;;;;16.79;100.00;100322.83;1516707;94;21138;-91
2022/09/09 08:18:15;;;;;;;6.40;2.70;;;;;;;16.87;100.00;100324.52;1458439;95;21353;-88
2022/09/09 08:21:17;;;;;;;3.20;2.25;;;;;;;16.94;100.00;100324.02;1499485;93;21356;-90
2022/09/09 08:24:22;;;;;;;4.85;1.90;;;;;;;17.07;100.00;100326.73;1487121;92;21084;-78
2022/09/09 08:27:47;;;;;;;2.67;2.10;;;;;;;17.16;100.00;100325.28;1411864;100;21142;-80
2022/09/09 08:30:22;;;;;;;3.00;2.20;;;;;;;17.24;100.00;100323.45;1340347;106;21100;-87
2022/09/09 08:32:54;;;;;;;3.80;2.25;;;;;;;17.39;100.00;100321.10;1335442;107;21220;-89
2022/09/09 08:35:25;;;;;;;3.92;1.98;;;;;;;17.49;100.00;100322.19;1339033;106;21255;-94
2022/09/09 08:37:55;;;;;;;5.95;2.00;;;;;;;17.57;100.00;100322.53;1338510;106;21703;-92
2022/09/09 08:40:24;;;;;;;;;;;;;;;17.63;100.00;100324.39;1341532;106;21158;-83
2022/09/09 08:42:56;;;;;;;2.58;1.57;;;;;;;17.70;100.00;100329.63;1317172;107;20636;-95
2022/09/09 08:45:53;;;;;;;3.05;1.70;;;;;;;17.72;100.00;100329.06;1326450;107;21205;-86
2022/09/09 08:48:44;;;;;;;2.98;1.92;;;;;;;17.75;100.00;100324.87;1341186;105;21069;-92
2022/09/09 08:51:13;;;;;;;3.60;1.50;;;;;;;17.85;100.00;100328.64;1340324;105;22491;-91
2022/09/09 08:53:49;;;;;;;1.85;1.45;;;;;;;17.92;100.00;100330.38;1340950;105;21202;-91
2022/09/09 08:56:25;;;;;;;2.92;1.42;;;;;;;17.98;100.00;100329.47;1354468;104;21239;-93
2022/09/09 08:58:59;;;;;;;6.10;1.72;;;;;;;18.10;100.00;100326.95;1324465;107;21215;-84
2022/09/09 09:01:50;;;;;;;4.92;1.62;;;;;;;18.19;100.00;100330.28;1340233;105;21205;-83
2022/09/09 09:04:47;;;;;;;3.17;1.30;;;;;;;18.35;100.00;100330.06;1409844;97;21129;-80
2022/09/09 09:07:23;;;;;;;3.30;1.60;;;;;;;18.45;100.00;100327.09;1433153;96;21077;-88
2022/09/09 09:09:59;;;;;;;2.42;1.30;;;;;;;18.59;100.00;100326.95;1489051;94;21176;-84
2022/09/09 09:12:35;;;;;;;2.12;1.52;;;;;;;18.73;100.00;100333.48;1488342;94;21729;-80
2022/09/09 09:15:02;;;;;;;2.52;1.30;;;;;;;18.78;100.00;100338.47;1488397;94;21132;-84
2022/09/09 09:17:33;;;;;;;4.12;1.40;;;;;;;18.84;100.00;100336.69;1489252;94;21085;-85
2022/09/09 09:20:00;;;;;;;3.22;1.27;;;;;;;18.92;100.00;100340.12;1492823;94;21143;-85
2022/09/09 09:22:51;;;;;;;2.75;1.35;;;;;;;18.98;100.00;100342.81;1495909;94;21118;-86
2022/09/09 09:25:24;;;;;;;3.70;1.42;;;;;;;19.08;100.00;100334.06;1546380;89;21251;-81
2022/09/09 09:28:05;;;;;;;3.55;1.60;;;;;;;19.20;100.00;100337.61;1586617;89;22162;-88
2022/09/09 09:30:36;;;;;;;3.15;1.20;;;;;;;19.34;100.00;100334.80;1580764;90;21087;-85
2022/09/09 09:33:25;;;;;;;2.15;1.25;;;;;;;19.49;99.86;100333.28;1591420;89;21613;-80
2022/09/09 09:35:54;;;;;;;4.42;1.50;;;;;;;19.64;99.04;100336.09;1594665;89;21038;-80
2022/09/09 09:38:25;;;;;;;4.97;1.30;;;;;;;19.73;98.26;100330.58;1612863;87;21534;-85
2022/09/09 09:41:01;;;;;;;1.87;1.00;;;;;;;19.85;98.30;100327.00;1612860;87;22105;-80
2022/09/09 09:43:35;;;;;;;3.67;1.20;;;;;;;19.99;97.80;100328.10;1598818;88;21048;-87
2022/09/09 09:46:07;;;;;;;2.58;1.10;;;;;;;20.07;97.22;100333.33;1578917;88;21553;-82
2022/09/09 09:48:35;;;;;;;3.40;1.20;;;;;;;20.17;96.62;100335.13;1577229;89;22171;-87
2022/09/09 09:51:10;;;;;;;2.77;1.10;;;;;;;20.26;96.35;100334.91;1598846;88;21361;-90
2022/09/09 09:53:39;;;;;;;3.10;1.40;;;;;;;20.40;96.13;100338.66;1551300;89;20958;-84
2022/09/09 09:56:11;;;;;;;3.65;1.12;;;;;;;20.57;96.18;100333.35;1590492;88;20953;-90
2022/09/09 09:58:53;;;;;;;4.05;1.05;;;;;;;20.77;95.60;100338.89;1595011;88;21040;-89
2022/09/09 10:01:31;;;;;;;4.15;1.30;;;;;;;20.88;94.38;100329.05;1592753;88;21071;-82
2022/09/09 10:04:05;;;;;;;1.42;0.82;;;;;;;20.99;93.37;100323.34;1553821;91;21111;-78
2022/09/09 10:06:36;;;;;;;1.98;1.10;;;;;;;21.11;92.96;100324.50;1584592;89;20943;-81
2022/09/09 10:09:26;;;;;;;3.65;1.20;;;;;;;21.20;91.95;100322.92;1583501;89;21102;-84
2022/09/09 10:12:04;;;;;;;2.83;1.30;;;;;;;21.29;91.91;100324.81;1590235;90;21191;-83
2022/09/09 10:14:51;;;;;;;3.27;1.07;;;;;;;21.49;92.12;100328.50;1583043;88;21090;-80
2022/09/09 10:17:36;;;;;;;3.37;0.80;;;;;;;21.61;91.22;100327.45;1569673;89;21214;-82
2022/09/09 10:20:44;;;;;;;4.78;1.20;;;;;;;21.69;90.40;100332.64;1585967;89;21567;-83
2022/09/09 10:23:48;;;;;;;2.67;1.00;;;;;;;21.82;89.98;100323.47;1589709;89;21062;-82
2022/09/09 10:26:51;;;;;;;2.98;0.80;;;;;;;22.12;89.97;100331.16;1631825;86;21632;-79
2022/09/09 10:29:48;;;;;;;4.55;1.10;;;;;;;22.39;89.30;100332.41;1635512;86;21580;-81
2022/09/09 10:32:55;;;;;;;2.72;1.10;;;;;;;22.74;88.82;100332.47;1619540;86;22014;-82
2022/09/09 10:35:48;;;;;;;3.52;1.62;;;;;;;23.06;88.45;100339.81;1620282;86;21196;-77
2022/09/09 10:38:35;;;;;;;4.60;2.45;;;;;;;23.41;87.80;100339.74;1637830;87;21018;-79
2022/09/09 10:41:19;;;;;;;3.47;1.30;;;;;;;23.70;87.21;100339.73;1621670;86;21027;-79
2022/09/09 10:44:20;;;;;;;2.87;0.98;;;;;;;23.93;85.60;100336.77;1627470;86;21582;-82
2022/09/09 10:47:03;;;;;;;5.97;1.70;;;;;;;24.14;85.38;100332.53;1629319;86;21126;-77
2022/09/09 10:50:00;;;;;;;2.60;0.98;;;;;;;24.43;84.74;100325.27;1631264;86;21038;-78
2022/09/09 10:52:42;;;;;;;3.77;0.80;;;;;;;24.60;83.10;100331.66;1625365;86;21024;-80
2022/09/09 10:55:28;;;;;;;3.55;0.80;;;;;;;24.80;82.24;100327.03;1632670;86;21089;-80
2022/09/09 10:57:58;;;;;;;1.85;0.80;;;;;;;24.85;80.27;100331.95;1647333;85;21965;-80
2022/09/09 11:00:41;;;;;;;2.85;1.00;;;;;;;24.79;78.87;100328.03;1649535;85;21120;-81
2022/09/09 11:03:34;;;;;;;1.82;0.68;;;;;;;24.89;79.44;100326.15;1647957;84;21030;-81
2022/09/09 11:06:08;;;;;;;2.98;0.80;;;;;;;25.08;79.40;100323.83;1649129;85;21061;-77
2022/09/09 11:08:39;;;;;;;2.90;0.80;;;;;;;25.24;77.83;100319.64;1650395;85;20961;-81
2022/09/09 11:11:13;;;;;;;2.58;0.75;;;;;;;25.36;76.94;100312.55;1650503;85;21030;-79
2022/09/09 11:14:03;;;;;;;2.72;0.82;;;;;;;25.53;76.27;100311.34;1613259;86;21989;-83
2022/09/09 11:16:48;;;;;;;2.45;0.60;;;;;;;25.62;74.97;100311.74;1603086;86;21015;-77
2022/09/09 11:19:36;;;;;;;4.47;0.93;;;;;;;25.47;73.70;100315.50;1624385;86;21025;-79
2022/09/09 11:22:25;;;;;;;3.25;0.60;;;;;;;25.57;73.31;100310.02;1607336;87;21514;-79
2022/09/09 11:25:29;;;;;;;1.92;0.70;;;;;;;25.75;73.25;100305.97;1619640;85;21026;-78
2022/09/09 11:28:15;;;;;;;4.00;0.90;;;;;;;25.91;72.53;100314.17;1629625;87;21893;-81
2022/09/09 11:31:26;;;;;;;1.67;0.50;;;;;;;25.84;70.77;100313.61;1634289;86;21616;-79
2022/09/09 11:34:25;;;;;;;2.90;0.62;;;;;;;25.84;70.47;100298.84;1599364;88;21507;-80
2022/09/09 11:37:29;;;;;;;3.72;0.93;;;;;;;26.08;70.57;100312.89;1628652;85;21008;-80
2022/09/09 11:40:26;;;;;;;2.02;0.65;;;;;;;26.14;69.46;100310.44;1631591;86;20990;-80
2022/09/09 11:43:12;;;;;;;1.72;0.50;;;;;;;26.25;68.55;100314.69;1597207;88;21155;-79
2022/09/09 11:45:42;;;;;;;2.95;0.80;;;;;;;26.19;67.76;100310.80;1596964;88;21111;-81
2022/09/09 11:48:33;;;;;;;1.67;0.70;;;;;;;26.28;67.42;100307.65;1595483;88;21093;-81
2022/09/09 11:51:05;;;;;;;1.80;0.68;;;;;;;26.34;66.65;100305.66;1582210;89;21110;-81
2022/09/09 11:53:34;;;;;;;3.12;0.90;;;;;;;26.33;66.06;100303.98;1582393;88;21137;-83
2022/09/09 11:56:14;;;;;;;1.55;0.57;;;;;;;26.47;66.30;100297.16;1588572;89;21102;-83
2022/09/09 11:58:58;;;;;;;1.02;0.50;;;;;;;26.62;65.41;100292.85;1585395;88;21567;-83
2022/09/09 12:01:37;;;;;;;2.77;0.62;;;;;;;26.67;65.00;100294.55;1582475;88;21054;-79
2022/09/09 12:04:12;;;;;;;1.35;0.50;;;;;;;26.67;64.54;100299.09;1522312;92;21105;-82